createdAt,value
2019-03-30T00:01:05.101Z,88.11
2019-03-30T00:03:35.830Z,88.16
2019-03-30T00:06:06.576Z,88.97
2019-03-30T00:08:37.347Z,88.63
2019-03-30T00:11:08.122Z,89.11
2019-03-30T00:13:39.347Z,88.82
2019-03-30T00:16:10.088Z,89.12
2019-03-30T00:18:41.492Z,88.64
2019-03-30T00:21:12.488Z,88.14
2019-03-30T00:23:43.250Z,87.66
2019-03-30T00:26:13.988Z,87.40
2019-03-30T00:28:44.759Z,87.15
2019-03-30T00:31:15.538Z,87.23
2019-03-30T00:33:46.322Z,87.08
2019-03-30T00:36:17.058Z,87.04
2019-03-30T00:38:47.835Z,87.02
2019-03-30T00:41:18.629Z,87.06
2019-03-30T00:43:49.359Z,86.86
2019-03-30T00:46:20.129Z,87.09
2019-03-30T00:48:50.924Z,87.38
2019-03-30T00:51:21.707Z,88.68
2019-03-30T00:53:52.454Z,90.25
2019-03-30T00:56:23.199Z,90.63
2019-03-30T00:58:53.950Z,90.90
2019-03-30T01:01:24.721Z,90.91
2019-03-30T01:03:55.470Z,90.40
2019-03-30T01:06:26.266Z,89.97
2019-03-30T01:08:57.036Z,90.16
2019-03-30T01:11:27.847Z,89.96
2019-03-30T01:13:59.395Z,88.97
2019-03-30T01:16:30.098Z,88.60
2019-03-30T01:19:00.887Z,89.22
2019-03-30T01:21:31.692Z,90.38
2019-03-30T01:24:02.703Z,90.13
2019-03-30T01:26:33.450Z,90.23
2019-03-30T01:29:04.339Z,90.88
2019-03-30T01:31:35.151Z,90.20
2019-03-30T01:34:05.922Z,90.44
2019-03-30T01:36:36.703Z,90.22
2019-03-30T01:39:08.391Z,89.42
2019-03-30T01:41:39.207Z,89.32
2019-03-30T01:44:11.010Z,89.15
2019-03-30T01:46:41.730Z,89.42
2019-03-30T01:49:12.497Z,89.80
2019-03-30T01:51:43.216Z,89.40
2019-03-30T01:54:14.130Z,89.95
2019-03-30T01:56:44.866Z,89.83
2019-03-30T01:59:15.631Z,89.43
2019-03-30T02:01:46.347Z,89.68
2019-03-30T02:04:17.230Z,90.17
2019-03-30T02:06:47.969Z,90.10
2019-03-30T02:09:18.774Z,90.46
2019-03-30T02:11:49.503Z,90.26
2019-03-30T02:14:20.758Z,89.44
2019-03-30T02:16:51.864Z,88.77
2019-03-30T02:19:22.609Z,89.21
2019-03-30T02:21:53.340Z,89.53
2019-03-30T02:24:24.380Z,89.79
2019-03-30T02:26:55.106Z,89.60
2019-03-30T02:29:25.859Z,89.74
2019-03-30T02:31:56.666Z,88.98
2019-03-30T02:34:27.483Z,88.43
2019-03-30T02:36:58.227Z,88.32
2019-03-30T02:39:29.016Z,88.25
2019-03-30T02:41:59.814Z,88.47
2019-03-30T02:44:30.613Z,88.82
2019-03-30T02:47:01.389Z,88.52
2019-03-30T02:49:32.238Z,88.77
2019-03-30T02:52:03.045Z,88.72
2019-03-30T02:54:34.028Z,89.09
2019-03-30T02:57:04.761Z,89.12
2019-03-30T02:59:35.508Z,89.25
2019-03-30T03:02:06.246Z,89.06
2019-03-30T03:04:37.080Z,89.01
2019-03-30T03:07:07.838Z,89.20
2019-03-30T03:09:38.726Z,89.55
2019-03-30T03:12:09.431Z,89.63
2019-03-30T03:14:40.591Z,88.95
2019-03-30T03:17:11.296Z,88.83
2019-03-30T03:19:42.031Z,88.79
2019-03-30T03:22:12.780Z,89.20
2019-03-30T03:24:43.895Z,89.81
2019-03-30T03:27:14.703Z,89.31
2019-03-30T03:29:45.487Z,90.04
2019-03-30T03:32:16.269Z,89.30
2019-03-30T03:34:47.089Z,89.10
2019-03-30T03:37:17.806Z,89.16
2019-03-30T03:39:49.784Z,87.89
2019-03-30T03:42:20.526Z,87.91
2019-03-30T03:44:51.345Z,88.18
2019-03-30T03:47:22.087Z,88.03
2019-03-30T03:49:52.830Z,88.18
2019-03-30T03:52:23.532Z,87.70
2019-03-30T03:54:55.717Z,88.50
2019-03-30T03:57:28.678Z,88.69
2019-03-30T04:00:01.796Z,88.39
2019-03-30T04:02:37.402Z,88.55
2019-03-30T04:05:09.892Z,88.94
2019-03-30T04:07:43.525Z,88.80
2019-03-30T04:10:15.436Z,89.25
2019-03-30T04:12:47.636Z,89.31
2019-03-30T04:15:28.578Z,89.29
2019-03-30T04:17:59.309Z,88.95
2019-03-30T04:20:30.087Z,89.53
2019-03-30T04:23:00.835Z,89.53
2019-03-30T04:25:31.785Z,90.03
2019-03-30T04:28:03.606Z,90.32
2019-03-30T04:30:34.407Z,89.97
2019-03-30T04:33:05.325Z,89.81
2019-03-30T04:35:37.203Z,89.78
2019-03-30T04:38:07.968Z,90.27
2019-03-30T04:40:38.903Z,90.23
2019-03-30T04:43:09.638Z,90.11
2019-03-30T04:45:40.540Z,90.05
2019-03-30T04:48:11.539Z,90.51
2019-03-30T04:50:42.435Z,91.08
2019-03-30T04:53:13.143Z,91.50
2019-03-30T04:55:44.216Z,91.13
2019-03-30T04:58:14.971Z,90.73
2019-03-30T05:00:45.719Z,90.87
2019-03-30T05:03:16.453Z,90.71
2019-03-30T05:05:47.275Z,90.81
2019-03-30T05:08:17.983Z,90.57
2019-03-30T05:10:48.966Z,89.68
2019-03-30T05:13:19.742Z,89.67
2019-03-30T05:15:51.013Z,89.18
2019-03-30T05:18:21.779Z,88.24
2019-03-30T05:20:52.491Z,87.18
2019-03-30T05:23:23.221Z,86.25
2019-03-30T05:25:54.092Z,85.65
2019-03-30T05:28:24.827Z,84.41
2019-03-30T05:30:55.541Z,82.68
2019-03-30T05:33:26.249Z,80.05
2019-03-30T05:35:57.068Z,77.56
2019-03-30T05:38:27.812Z,77.65
2019-03-30T05:40:58.562Z,76.85
2019-03-30T05:43:29.307Z,76.16
2019-03-30T05:46:00.158Z,74.44
2019-03-30T05:48:31.064Z,73.94
2019-03-30T05:51:01.823Z,74.62
2019-03-30T05:53:33.675Z,71.35
2019-03-30T05:56:04.707Z,75.77
2019-03-30T05:58:35.449Z,77.47
2019-03-30T06:01:06.260Z,73.58
2019-03-30T06:03:37.088Z,71.94
2019-03-30T06:06:07.937Z,72.36
2019-03-30T06:08:38.700Z,71.21
2019-03-30T06:11:09.495Z,69.69
2019-03-30T06:13:40.227Z,71.08
2019-03-30T06:16:11.673Z,70.36
2019-03-30T06:18:42.421Z,69.78
2019-03-30T06:21:14.291Z,69.79
2019-03-30T06:23:48.407Z,67.72
2019-03-30T06:26:17.600Z,68.82
2019-03-30T06:28:48.363Z,67.20
2019-03-30T06:31:19.154Z,68.06
2019-03-30T06:33:49.880Z,68.53
2019-03-30T06:36:20.717Z,69.11
2019-03-30T06:38:51.946Z,69.42
2019-03-30T06:41:22.768Z,68.24
2019-03-30T06:43:53.497Z,70.01
2019-03-30T06:46:24.747Z,69.74
2019-03-30T06:48:57.631Z,70.45
2019-03-30T06:52:13.438Z,69.20
2019-03-30T06:54:45.819Z,67.32
2019-03-30T06:57:16.737Z,68.39
2019-03-30T06:59:47.481Z,66.95
2019-03-30T07:02:18.443Z,66.83
2019-03-30T07:04:49.519Z,65.93
2019-03-30T07:07:21.081Z,65.27
2019-03-30T07:09:53.445Z,65.30
2019-03-30T07:12:25.759Z,62.39
2019-03-30T07:14:59.301Z,61.74
2019-03-30T07:17:31.855Z,60.48
2019-03-30T07:20:04.144Z,62.79
2019-03-30T07:22:34.911Z,60.87
2019-03-30T07:25:05.932Z,60.47
2019-03-30T07:27:37.914Z,57.94
2019-03-30T07:30:09.124Z,57.96
2019-03-30T07:32:39.987Z,55.14
2019-03-30T07:35:13.063Z,53.51
2019-03-30T07:37:43.971Z,52.76
2019-03-30T07:40:15.059Z,51.50
2019-03-30T07:42:46.026Z,51.56
2019-03-30T07:45:17.101Z,50.45
2019-03-30T07:47:48.092Z,49.13
2019-03-30T07:50:19.410Z,48.24
2019-03-30T07:52:50.276Z,49.72
2019-03-30T07:55:21.139Z,47.94
2019-03-30T07:57:52.146Z,46.75
2019-03-30T08:00:22.996Z,48.80
2019-03-30T08:02:54.281Z,49.38
2019-03-30T08:05:25.074Z,48.62
2019-03-30T08:07:55.955Z,48.90
2019-03-30T08:10:27.341Z,49.01
2019-03-30T08:12:58.421Z,46.89
2019-03-30T08:15:29.294Z,45.79
2019-03-30T08:18:00.558Z,44.58
2019-03-30T08:20:31.502Z,41.87
2019-03-30T08:23:02.608Z,44.94
2019-03-30T08:25:33.369Z,38.92
2019-03-30T08:28:04.418Z,39.29
2019-03-30T08:30:36.535Z,38.58
2019-03-30T08:33:07.323Z,36.37
2019-03-30T08:35:38.168Z,36.33
2019-03-30T08:38:09.074Z,35.78
2019-03-30T08:40:39.868Z,34.64
2019-03-30T08:43:10.886Z,41.50
2019-03-30T08:45:41.663Z,42.08
2019-03-30T08:48:12.543Z,42.12
2019-03-30T08:50:43.381Z,36.58
2019-03-30T08:53:14.208Z,38.94
2019-03-30T08:55:45.056Z,41.28
2019-03-30T08:58:16.646Z,38.18
2019-03-30T09:00:53.687Z,39.12
2019-03-30T09:03:41.943Z,35.50
2019-03-30T09:06:12.743Z,38.04
2019-03-30T09:08:43.660Z,40.42
2019-03-30T09:11:14.524Z,34.20
2019-03-30T09:13:46.526Z,35.85
2019-03-30T09:16:17.331Z,33.01
2019-03-30T09:18:48.538Z,39.74
2019-03-30T09:21:19.362Z,36.39
2019-03-30T09:23:50.190Z,34.09
2019-03-30T09:26:21.154Z,38.15
2019-03-30T09:28:53.952Z,38.15
2019-03-30T09:31:31.907Z,35.43
2019-03-30T09:34:12.768Z,38.09
2019-03-30T09:36:45.326Z,35.56
2019-03-30T09:39:16.258Z,36.67
2019-03-30T09:41:47.093Z,34.25
2019-03-30T09:44:17.977Z,35.91
2019-03-30T09:46:48.768Z,31.58
2019-03-30T09:49:19.613Z,33.21
2019-03-30T09:51:50.448Z,35.39
2019-03-30T09:54:26.313Z,35.59
2019-03-30T09:56:58.824Z,38.27
2019-03-30T09:59:29.816Z,35.65
2019-03-30T10:02:00.670Z,41.77
2019-03-30T10:04:31.472Z,42.41
2019-03-30T10:07:02.234Z,35.80
2019-03-30T10:09:33.044Z,35.89
2019-03-30T10:12:04.100Z,39.81
2019-03-30T10:14:34.938Z,42.16
2019-03-30T10:17:05.772Z,39.56
2019-03-30T10:19:36.679Z,33.67
2019-03-30T10:22:08.699Z,32.91
2019-03-30T10:24:39.586Z,32.67
2019-03-30T10:27:10.352Z,31.56
2019-03-30T10:29:41.469Z,31.04
2019-03-30T10:32:12.328Z,30.70
2019-03-30T10:34:43.131Z,32.74
2019-03-30T10:37:14.051Z,30.36
2019-03-30T10:39:45.101Z,33.22
2019-03-30T10:42:15.951Z,30.91
2019-03-30T10:44:46.869Z,32.06
2019-03-30T10:47:17.638Z,31.83
2019-03-30T10:49:48.596Z,30.94
2019-03-30T10:52:19.647Z,34.36
2019-03-30T10:54:53.046Z,34.84
2019-03-30T10:57:23.419Z,32.47
2019-03-30T10:59:54.569Z,34.60
2019-03-30T11:02:25.445Z,33.61
2019-03-30T11:04:56.357Z,33.88
2019-03-30T11:07:27.165Z,32.86
2019-03-30T11:09:58.385Z,31.95
2019-03-30T11:12:29.244Z,33.50
2019-03-30T11:15:00.375Z,32.69
2019-03-30T11:17:31.231Z,33.40
2019-03-30T11:20:02.447Z,33.46
2019-03-30T11:22:34.581Z,32.87
2019-03-30T11:25:08.467Z,34.62
2019-03-30T11:27:38.201Z,33.18
2019-03-30T11:30:09.317Z,33.49
2019-03-30T11:32:40.313Z,33.21
2019-03-30T11:35:11.198Z,33.70
2019-03-30T11:37:42.023Z,33.29
2019-03-30T11:40:12.960Z,30.77
2019-03-30T11:42:43.754Z,34.19
2019-03-30T11:45:15.023Z,30.96
2019-03-30T11:47:45.811Z,32.78
2019-03-30T11:50:16.675Z,33.70
2019-03-30T11:52:47.458Z,32.84
2019-03-30T11:55:22.121Z,34.53
2019-03-30T11:57:50.851Z,33.60
2019-03-30T12:00:21.850Z,35.07
2019-03-30T12:02:52.690Z,32.80
2019-03-30T12:05:23.559Z,33.94
2019-03-30T12:07:54.382Z,32.91
2019-03-30T12:10:25.199Z,35.12
2019-03-30T12:12:56.053Z,32.98
2019-03-30T12:15:28.177Z,34.10
2019-03-30T12:17:59.087Z,33.88
2019-03-30T12:20:30.130Z,35.53
2019-03-30T12:23:00.917Z,34.71
2019-03-30T12:25:35.778Z,35.69
2019-03-30T12:28:04.344Z,35.33
2019-03-30T12:30:35.229Z,34.09
2019-03-30T12:33:06.007Z,35.61
2019-03-30T12:35:36.873Z,35.37
2019-03-30T12:38:07.774Z,35.73
2019-03-30T12:40:38.584Z,34.95
2019-03-30T12:43:09.393Z,35.03
2019-03-30T12:45:41.586Z,35.58
2019-03-30T12:48:12.348Z,35.40
2019-03-30T12:50:43.194Z,35.08
2019-03-30T12:53:14.031Z,34.46
2019-03-30T12:55:49.434Z,33.72
2019-03-30T12:58:17.509Z,34.07
2019-03-30T13:00:48.543Z,35.49
2019-03-30T13:03:19.455Z,34.66
2019-03-30T13:05:50.254Z,34.66
2019-03-30T13:08:21.255Z,34.66
2019-03-30T13:10:52.122Z,34.95
2019-03-30T13:13:22.981Z,34.07
2019-03-30T13:15:53.947Z,33.25
2019-03-30T13:18:24.843Z,32.45
2019-03-30T13:20:56.221Z,33.38
2019-03-30T13:23:27.030Z,33.21
2019-03-30T13:26:03.882Z,33.17
2019-03-30T13:28:30.510Z,34.85
2019-03-30T13:31:01.578Z,35.15
2019-03-30T13:33:33.880Z,35.27
2019-03-30T13:36:05.397Z,34.07
2019-03-30T13:38:36.227Z,33.93
2019-03-30T13:41:07.022Z,33.66
2019-03-30T13:43:37.795Z,33.54
2019-03-30T13:46:08.716Z,34.22
2019-03-30T13:48:40.564Z,34.60
2019-03-30T13:51:11.358Z,34.71
2019-03-30T13:53:42.083Z,34.62
2019-03-30T13:56:17.298Z,35.03
2019-03-30T13:58:45.335Z,35.58
2019-03-30T14:01:16.311Z,34.38
2019-03-30T14:03:47.070Z,33.69
2019-03-30T14:06:17.948Z,33.77
2019-03-30T14:08:48.787Z,35.32
2019-03-30T14:11:19.590Z,33.97
2019-03-30T14:13:50.326Z,34.79
2019-03-30T14:16:22.199Z,35.47
2019-03-30T14:18:53.013Z,35.53
2019-03-30T14:21:24.022Z,36.61
2019-03-30T14:23:54.759Z,35.44
2019-03-30T14:26:31.632Z,35.51
2019-03-30T14:28:58.048Z,36.28
2019-03-30T14:31:28.914Z,35.90
2019-03-30T14:34:02.206Z,35.51
2019-03-30T14:36:32.979Z,35.37
2019-03-30T14:39:05.759Z,37.22
2019-03-30T14:41:36.774Z,35.85
2019-03-30T14:44:07.509Z,35.84
2019-03-30T14:46:39.392Z,35.09
2019-03-30T14:49:10.240Z,36.21
2019-03-30T14:51:40.999Z,36.50
2019-03-30T14:54:11.765Z,35.94
2019-03-30T14:56:45.818Z,36.76
2019-03-30T14:59:15.202Z,36.62
2019-03-30T15:01:46.031Z,37.24
2019-03-30T15:04:16.761Z,37.38
2019-03-30T15:06:47.523Z,37.80
2019-03-30T15:09:18.320Z,37.25
2019-03-30T15:11:49.103Z,38.53
2019-03-30T15:14:19.840Z,37.12
2019-03-30T15:16:50.662Z,39.57
2019-03-30T15:19:21.499Z,38.82
2019-03-30T15:21:52.734Z,39.49
2019-03-30T15:24:23.508Z,38.30
2019-03-30T15:27:00.079Z,38.70
2019-03-30T15:29:26.868Z,38.42
2019-03-30T15:31:57.808Z,39.02
2019-03-30T15:34:47.439Z,38.62
2019-03-30T15:37:21.222Z,39.38
2019-03-30T15:39:52.096Z,39.51
2019-03-30T15:42:22.873Z,39.86
2019-03-30T15:44:53.651Z,39.63
2019-03-30T15:47:24.957Z,40.71
2019-03-30T15:50:04.734Z,39.73
2019-03-30T15:52:46.721Z,40.40
2019-03-30T15:55:29.657Z,39.81
2019-03-30T15:58:03.157Z,40.32
2019-03-30T16:00:34.226Z,41.22
2019-03-30T16:03:05.106Z,40.73
2019-03-30T16:05:36.930Z,40.90
2019-03-30T16:08:07.841Z,41.59
2019-03-30T16:10:40.757Z,40.68
2019-03-30T16:16:12.360Z,41.23
2019-03-30T16:18:52.014Z,41.62
2019-03-30T16:21:28.018Z,41.15
2019-03-30T16:24:32.703Z,42.53
2019-03-30T16:27:28.232Z,42.35
2019-03-30T16:29:48.643Z,42.70
2019-03-30T16:33:07.394Z,42.59
2019-03-30T16:35:52.723Z,43.69
2019-03-30T16:38:31.632Z,43.12
2019-03-30T16:41:10.100Z,43.64
2019-03-30T16:43:46.947Z,43.20
2019-03-30T16:46:20.736Z,42.84
2019-03-30T16:48:51.521Z,43.06
2019-03-30T16:51:22.492Z,43.04
2019-03-30T16:53:53.258Z,44.16
2019-03-30T16:56:24.108Z,44.51
2019-03-30T16:58:55.011Z,43.41
2019-03-30T17:01:25.789Z,43.83
2019-03-30T17:03:56.591Z,43.90
2019-03-30T17:06:27.545Z,44.32
2019-03-30T17:08:58.258Z,43.97
2019-03-30T17:11:29.048Z,43.70
2019-03-30T17:13:59.849Z,45.33
2019-03-30T17:16:30.608Z,45.36
2019-03-30T17:19:01.363Z,45.29
2019-03-30T17:21:32.174Z,45.85
2019-03-30T17:24:04.472Z,46.76
2019-03-30T17:26:35.301Z,47.10
2019-03-30T17:29:06.043Z,46.89
2019-03-30T17:31:36.868Z,47.23
2019-03-30T17:34:07.724Z,47.64
2019-03-30T17:36:38.828Z,47.51
2019-03-30T17:39:13.613Z,47.71
2019-03-30T17:41:44.490Z,48.65
2019-03-30T17:44:15.308Z,49.16
2019-03-30T17:46:46.092Z,49.86
2019-03-30T17:49:16.851Z,50.06
2019-03-30T17:51:47.874Z,51.63
2019-03-30T17:54:18.693Z,51.79
2019-03-30T17:56:49.484Z,51.58
2019-03-30T17:59:23.535Z,52.42
2019-03-30T18:01:52.722Z,52.24
2019-03-30T18:04:23.588Z,52.32
2019-03-30T18:06:54.494Z,51.64
2019-03-30T18:09:25.450Z,52.52
2019-03-30T18:11:56.230Z,53.47
2019-03-30T18:14:27.448Z,54.38
2019-03-30T18:16:58.306Z,55.28
2019-03-30T18:19:29.055Z,55.03
2019-03-30T18:22:04.029Z,54.86
2019-03-30T18:24:36.412Z,56.83
2019-03-30T18:27:07.306Z,56.36
2019-03-30T18:29:38.091Z,56.68
2019-03-30T18:32:09.030Z,57.32
2019-03-30T18:34:41.130Z,58.23
2019-03-30T18:37:12.395Z,58.82
2019-03-30T18:39:43.190Z,59.04
2019-03-30T18:42:13.935Z,59.29
2019-03-30T18:44:45.981Z,60.09
2019-03-30T18:47:16.739Z,60.04
2019-03-30T18:49:48.563Z,60.77
2019-03-30T18:52:20.033Z,61.18
2019-03-30T18:54:53.150Z,61.51
2019-03-30T18:57:24.065Z,61.59
2019-03-30T18:59:54.845Z,62.18
2019-03-30T19:02:25.710Z,62.44
2019-03-30T19:04:56.447Z,62.59
2019-03-30T19:07:27.434Z,62.40
2019-03-30T19:09:58.187Z,62.69
2019-03-30T19:12:28.994Z,63.26
2019-03-30T19:14:59.829Z,63.60
2019-03-30T19:17:30.689Z,63.39
2019-03-30T19:20:01.513Z,63.49
2019-03-30T19:22:32.387Z,63.85
2019-03-30T19:25:03.525Z,63.78
2019-03-30T19:27:34.398Z,64.12
2019-03-30T19:30:05.531Z,64.54
2019-03-30T19:32:36.280Z,64.99
2019-03-30T19:35:07.194Z,65.05
2019-03-30T19:37:38.051Z,65.31
2019-03-30T19:40:08.947Z,65.40
2019-03-30T19:42:39.703Z,66.14
2019-03-30T19:45:10.578Z,66.67
2019-03-30T19:47:41.403Z,66.35
2019-03-30T19:50:12.361Z,67.26
2019-03-30T19:52:43.273Z,66.91
2019-03-30T19:55:14.313Z,66.91
2019-03-30T19:57:45.219Z,67.44
2019-03-30T20:00:17.386Z,67.16
2019-03-30T20:02:48.221Z,68.53
2019-03-30T20:05:19.085Z,69.12
2019-03-30T20:07:50.032Z,69.33
2019-03-30T20:10:20.881Z,69.80
2019-03-30T20:12:51.721Z,70.39
2019-03-30T20:15:22.524Z,70.51
2019-03-30T20:17:53.555Z,71.12
2019-03-30T20:20:24.336Z,71.12
2019-03-30T20:22:55.210Z,71.59
2019-03-30T20:25:27.152Z,72.73
2019-03-30T20:27:58.532Z,72.69
2019-03-30T20:30:31.268Z,73.20
2019-03-30T20:33:02.635Z,73.50
2019-03-30T20:35:35.451Z,73.31
2019-03-30T20:38:06.815Z,74.45
2019-03-30T20:40:40.208Z,74.27
2019-03-30T20:43:18.220Z,74.34
2019-03-30T20:45:49.484Z,73.78
2019-03-30T20:48:29.457Z,74.39
2019-03-30T20:51:00.779Z,74.67
2019-03-30T20:53:32.653Z,75.68
2019-03-30T20:56:04.732Z,77.20
2019-03-30T20:58:35.611Z,78.16
2019-03-30T21:01:06.918Z,77.64
2019-03-30T21:03:37.782Z,76.46
2019-03-30T21:06:08.546Z,77.42
2019-03-30T21:08:39.681Z,77.88
2019-03-30T21:11:10.501Z,77.71
2019-03-30T21:13:41.345Z,77.42
2019-03-30T21:16:12.209Z,77.39
2019-03-30T21:18:43.006Z,77.10
2019-03-30T21:21:14.029Z,76.80
2019-03-30T21:23:45.093Z,76.63
2019-03-30T21:26:16.381Z,77.38
2019-03-30T21:28:47.171Z,77.59
2019-03-30T21:31:17.915Z,77.74
2019-03-30T21:33:48.903Z,78.15
2019-03-30T21:36:19.689Z,78.03
2019-03-30T21:38:50.550Z,78.31
2019-03-30T21:41:21.313Z,79.55
2019-03-30T21:43:52.173Z,79.91
2019-03-30T21:46:23.054Z,79.78
2019-03-30T21:48:54.317Z,79.70
2019-03-30T21:51:25.088Z,79.15
2019-03-30T21:53:56.168Z,78.92
2019-03-30T21:56:26.985Z,79.66
2019-03-30T21:58:58.347Z,80.45
2019-03-30T22:01:29.080Z,80.20
2019-03-30T22:03:59.952Z,80.82
2019-03-30T22:06:30.863Z,80.28
2019-03-30T22:09:01.971Z,80.47
2019-03-30T22:11:34.182Z,81.09
2019-03-30T22:14:05.331Z,81.36
2019-03-30T22:16:36.063Z,81.25
2019-03-30T22:19:06.866Z,81.06
2019-03-30T22:21:38.701Z,81.61
2019-03-30T22:24:09.644Z,81.55
2019-03-30T22:26:40.819Z,80.72
2019-03-30T22:29:12.575Z,80.34
2019-03-30T22:31:43.426Z,79.83
2019-03-30T22:34:14.316Z,80.30
2019-03-30T22:36:45.056Z,80.55
2019-03-30T22:39:15.950Z,79.69
2019-03-30T22:41:46.732Z,79.70
2019-03-30T22:44:17.587Z,79.57
2019-03-30T22:46:48.374Z,79.85
2019-03-30T22:49:19.160Z,80.53
2019-03-30T22:51:49.923Z,80.65
2019-03-30T22:54:21.037Z,80.12
2019-03-30T22:56:51.840Z,80.17
2019-03-30T22:59:22.620Z,79.90
2019-03-30T23:01:53.394Z,80.02
2019-03-30T23:04:24.247Z,80.17
2019-03-30T23:06:55.032Z,80.61
2019-03-30T23:09:26.088Z,80.64
2019-03-30T23:11:56.858Z,80.13
2019-03-30T23:14:27.875Z,80.07
2019-03-30T23:16:58.611Z,79.82
2019-03-30T23:19:31.671Z,79.63
2019-03-30T23:22:02.412Z,80.06
2019-03-30T23:24:33.339Z,79.79
2019-03-30T23:27:04.296Z,79.67
2019-03-30T23:29:35.069Z,79.06
2019-03-30T23:32:05.922Z,79.23
2019-03-30T23:34:36.845Z,79.93
2019-03-30T23:37:07.639Z,79.99
2019-03-30T23:39:38.512Z,79.62
2019-03-30T23:42:09.352Z,79.27
2019-03-30T23:44:40.187Z,79.78
2019-03-30T23:47:13.087Z,79.85
2019-03-30T23:49:43.859Z,79.85
2019-03-30T23:52:16.687Z,80.07
2019-03-30T23:54:48.756Z,80.08
2019-03-30T23:57:19.571Z,79.81
2019-03-30T23:59:50.367Z,80.10
